sensor_id;sensor_type;location;lat;lon;timestamp;P1;durP1;ratioP1;P2;durP2;ratioP2
59974;SDS011;62136;-35.664;-63.766;2023-04-03T00:00:54;2.75;;;1.60;;
59974;SDS011;62136;-35.664;-63.766;2023-04-03T00:03:21;1.33;;;1.15;;
59974;SDS011;62136;-35.664;-63.766;2023-04-03T00:05:49;3.05;;;1.60;;
59974;SDS011;62136;-35.664;-63.766;2023-04-03T00:08:16;3.42;;;1.75;;
59974;SDS011;62136;-35.664;-63.766;2023-04-03T00:10:43;3.20;;;1.58;;
59974;SDS011;62136;-35.664;-63.766;2023-04-03T00:13:10;2.28;;;1.52;;
59974;SDS011;62136;-35.664;-63.766;2023-04-03T00:15:38;2.17;;;1.58;;
59974;SDS011;62136;-35.664;-63.766;2023-04-03T00:18:06;2.55;;;1.40;;
59974;SDS011;62136;-35.664;-63.766;2023-04-03T00:20:33;1.73;;;1.42;;
59974;SDS011;62136;-35.664;-63.766;2023-04-03T00:23:01;3.10;;;1.75;;
59974;SDS011;62136;-35.664;-63.766;2023-04-03T00:25:28;2.60;;;1.67;;
59974;SDS011;62136;-35.664;-63.766;2023-04-03T00:27:55;3.28;;;1.70;;
59974;SDS011;62136;-35.664;-63.766;2023-04-03T00:30:22;2.88;;;1.70;;
59974;SDS011;62136;-35.664;-63.766;2023-04-03T00:32:50;3.53;;;1.58;;
59974;SDS011;62136;-35.664;-63.766;2023-04-03T00:35:18;3.25;;;1.92;;
59974;SDS011;62136;-35.664;-63.766;2023-04-03T00:37:46;2.40;;;1.70;;
59974;SDS011;62136;-35.664;-63.766;2023-04-03T00:40:14;3.10;;;1.80;;
59974;SDS011;62136;-35.664;-63.766;2023-04-03T00:42:42;2.05;;;1.20;;
59974;SDS011;62136;-35.664;-63.766;2023-04-03T00:47:44;2.78;;;1.45;;
59974;SDS011;62136;-35.664;-63.766;2023-04-03T00:50:11;2.45;;;1.40;;
59974;SDS011;62136;-35.664;-63.766;2023-04-03T00:52:39;2.40;;;1.50;;
59974;SDS011;62136;-35.664;-63.766;2023-04-03T00:55:07;3.00;;;1.55;;
59974;SDS011;62136;-35.664;-63.766;2023-04-03T00:57:37;2.42;;;1.52;;
59974;SDS011;62136;-35.664;-63.766;2023-04-03T01:00:05;2.05;;;1.30;;
59974;SDS011;62136;-35.664;-63.766;2023-04-03T01:02:35;3.35;;;1.63;;
59974;SDS011;62136;-35.664;-63.766;2023-04-03T01:05:02;2.63;;;1.70;;
59974;SDS011;62136;-35.664;-63.766;2023-04-03T01:07:31;2.35;;;1.50;;
59974;SDS011;62136;-35.664;-63.766;2023-04-03T01:10:07;3.40;;;1.55;;
59974;SDS011;62136;-35.664;-63.766;2023-04-03T01:12:40;2.92;;;1.40;;
59974;SDS011;62136;-35.664;-63.766;2023-04-03T01:15:10;3.35;;;1.60;;
59974;SDS011;62136;-35.664;-63.766;2023-04-03T01:25:23;1.90;;;1.60;;
59974;SDS011;62136;-35.664;-63.766;2023-04-03T01:27:50;2.95;;;1.70;;
59974;SDS011;62136;-35.664;-63.766;2023-04-03T01:30:18;3.45;;;1.77;;
59974;SDS011;62136;-35.664;-63.766;2023-04-03T01:32:46;2.03;;;1.65;;
59974;SDS011;62136;-35.664;-63.766;2023-04-03T01:35:13;2.08;;;1.83;;
59974;SDS011;62136;-35.664;-63.766;2023-04-03T01:37:40;3.42;;;1.70;;
59974;SDS011;62136;-35.664;-63.766;2023-04-03T01:40:08;2.10;;;1.52;;
59974;SDS011;62136;-35.664;-63.766;2023-04-03T01:42:35;1.95;;;1.67;;
59974;SDS011;62136;-35.664;-63.766;2023-04-03T01:45:02;4.25;;;1.70;;
59974;SDS011;62136;-35.664;-63.766;2023-04-03T01:47:29;4.63;;;1.70;;
59974;SDS011;62136;-35.664;-63.766;2023-04-03T01:49:56;5.45;;;1.70;;
59974;SDS011;62136;-35.664;-63.766;2023-04-03T01:52:24;3.08;;;1.60;;
59974;SDS011;62136;-35.664;-63.766;2023-04-03T01:54:51;1.70;;;1.58;;
59974;SDS011;62136;-35.664;-63.766;2023-04-03T01:57:18;2.30;;;1.42;;
59974;SDS011;62136;-35.664;-63.766;2023-04-03T01:59:45;2.60;;;1.90;;
59974;SDS011;62136;-35.664;-63.766;2023-04-03T02:02:12;2.45;;;1.70;;
59974;SDS011;62136;-35.664;-63.766;2023-04-03T02:04:42;3.22;;;1.88;;
59974;SDS011;62136;-35.664;-63.766;2023-04-03T02:07:10;2.03;;;1.70;;
59974;SDS011;62136;-35.664;-63.766;2023-04-03T02:09:37;2.03;;;1.83;;
59974;SDS011;62136;-35.664;-63.766;2023-04-03T02:12:07;3.50;;;2.05;;
59974;SDS011;62136;-35.664;-63.766;2023-04-03T02:14:34;3.10;;;1.95;;
59974;SDS011;62136;-35.664;-63.766;2023-04-03T02:17:04;2.78;;;1.65;;
59974;SDS011;62136;-35.664;-63.766;2023-04-03T02:19:34;4.35;;;1.75;;
59974;SDS011;62136;-35.664;-63.766;2023-04-03T02:22:02;3.28;;;1.80;;
59974;SDS011;62136;-35.664;-63.766;2023-04-03T02:24:29;3.45;;;1.92;;
59974;SDS011;62136;-35.664;-63.766;2023-04-03T02:26:57;2.88;;;1.85;;
59974;SDS011;62136;-35.664;-63.766;2023-04-03T02:29:24;3.03;;;1.77;;
59974;SDS011;62136;-35.664;-63.766;2023-04-03T02:31:51;3.85;;;1.75;;
59974;SDS011;62136;-35.664;-63.766;2023-04-03T02:34:18;3.65;;;2.00;;
59974;SDS011;62136;-35.664;-63.766;2023-04-03T02:36:45;3.17;;;1.80;;
59974;SDS011;62136;-35.664;-63.766;2023-04-03T02:39:12;4.32;;;2.05;;
59974;SDS011;62136;-35.664;-63.766;2023-04-03T02:41:39;2.45;;;1.80;;
59974;SDS011;62136;-35.664;-63.766;2023-04-03T02:44:06;2.92;;;1.90;;
59974;SDS011;62136;-35.664;-63.766;2023-04-03T02:46:35;3.72;;;1.80;;
59974;SDS011;62136;-35.664;-63.766;2023-04-03T02:49:06;2.67;;;1.80;;
59974;SDS011;62136;-35.664;-63.766;2023-04-03T02:51:33;3.63;;;1.60;;
59974;SDS011;62136;-35.664;-63.766;2023-04-03T02:54:00;2.47;;;1.85;;
59974;SDS011;62136;-35.664;-63.766;2023-04-03T02:56:27;3.60;;;1.77;;
59974;SDS011;62136;-35.664;-63.766;2023-04-03T02:58:57;3.40;;;1.95;;
59974;SDS011;62136;-35.664;-63.766;2023-04-03T03:01:27;2.90;;;1.67;;
59974;SDS011;62136;-35.664;-63.766;2023-04-03T03:03:57;2.00;;;1.65;;
59974;SDS011;62136;-35.664;-63.766;2023-04-03T03:06:24;3.38;;;2.17;;
59974;SDS011;62136;-35.664;-63.766;2023-04-03T03:08:52;3.10;;;2.13;;
59974;SDS011;62136;-35.664;-63.766;2023-04-03T03:11:19;3.80;;;1.77;;
59974;SDS011;62136;-35.664;-63.766;2023-04-03T03:13:46;3.13;;;1.75;;
59974;SDS011;62136;-35.664;-63.766;2023-04-03T03:16:13;3.75;;;1.77;;
59974;SDS011;62136;-35.664;-63.766;2023-04-03T03:18:40;3.05;;;1.80;;
59974;SDS011;62136;-35.664;-63.766;2023-04-03T03:21:08;4.32;;;1.92;;
59974;SDS011;62136;-35.664;-63.766;2023-04-03T03:23:36;3.53;;;1.90;;
59974;SDS011;62136;-35.664;-63.766;2023-04-03T03:26:07;4.22;;;1.70;;
59974;SDS011;62136;-35.664;-63.766;2023-04-03T03:28:36;3.95;;;1.70;;
59974;SDS011;62136;-35.664;-63.766;2023-04-03T03:31:04;2.67;;;1.70;;
59974;SDS011;62136;-35.664;-63.766;2023-04-03T03:33:32;4.20;;;1.80;;
59974;SDS011;62136;-35.664;-63.766;2023-04-03T03:36:00;2.70;;;1.92;;
59974;SDS011;62136;-35.664;-63.766;2023-04-03T03:38:27;3.38;;;1.83;;
59974;SDS011;62136;-35.664;-63.766;2023-04-03T03:40:54;2.65;;;1.77;;
59974;SDS011;62136;-35.664;-63.766;2023-04-03T03:43:21;3.75;;;1.92;;
59974;SDS011;62136;-35.664;-63.766;2023-04-03T03:45:54;2.03;;;1.55;;
59974;SDS011;62136;-35.664;-63.766;2023-04-03T03:48:21;3.35;;;1.52;;
59974;SDS011;62136;-35.664;-63.766;2023-04-03T03:50:49;4.22;;;1.80;;
59974;SDS011;62136;-35.664;-63.766;2023-04-03T03:53:16;3.33;;;1.60;;
59974;SDS011;62136;-35.664;-63.766;2023-04-03T03:55:44;2.88;;;1.60;;
59974;SDS011;62136;-35.664;-63.766;2023-04-03T03:58:11;2.78;;;1.63;;
59974;SDS011;62136;-35.664;-63.766;2023-04-03T04:00:38;3.83;;;1.55;;
59974;SDS011;62136;-35.664;-63.766;2023-04-03T04:03:05;1.92;;;1.67;;
59974;SDS011;62136;-35.664;-63.766;2023-04-03T04:05:32;5.10;;;1.63;;
59974;SDS011;62136;-35.664;-63.766;2023-04-03T04:07:59;2.97;;;1.55;;
59974;SDS011;62136;-35.664;-63.766;2023-04-03T04:10:26;3.47;;;1.55;;
59974;SDS011;62136;-35.664;-63.766;2023-04-03T04:12:53;3.40;;;1.80;;
59974;SDS011;62136;-35.664;-63.766;2023-04-03T04:15:20;2.55;;;1.40;;
59974;SDS011;62136;-35.664;-63.766;2023-04-03T04:17:48;2.75;;;1.70;;
59974;SDS011;62136;-35.664;-63.766;2023-04-03T04:20:15;4.03;;;1.83;;
59974;SDS011;62136;-35.664;-63.766;2023-04-03T04:22:42;4.15;;;1.70;;
59974;SDS011;62136;-35.664;-63.766;2023-04-03T04:25:10;3.00;;;1.70;;
59974;SDS011;62136;-35.664;-63.766;2023-04-03T04:27:37;4.50;;;1.80;;
59974;SDS011;62136;-35.664;-63.766;2023-04-03T04:30:04;3.33;;;2.00;;
59974;SDS011;62136;-35.664;-63.766;2023-04-03T04:32:32;2.97;;;1.70;;
59974;SDS011;62136;-35.664;-63.766;2023-04-03T04:34:59;3.28;;;1.50;;
59974;SDS011;62136;-35.664;-63.766;2023-04-03T04:37:26;2.58;;;1.70;;
59974;SDS011;62136;-35.664;-63.766;2023-04-03T04:39:53;2.90;;;1.80;;
59974;SDS011;62136;-35.664;-63.766;2023-04-03T04:42:20;4.40;;;1.92;;
59974;SDS011;62136;-35.664;-63.766;2023-04-03T04:44:47;2.20;;;1.48;;
59974;SDS011;62136;-35.664;-63.766;2023-04-03T04:47:14;2.25;;;1.80;;
59974;SDS011;62136;-35.664;-63.766;2023-04-03T04:49:42;2.70;;;1.60;;
59974;SDS011;62136;-35.664;-63.766;2023-04-03T04:52:09;4.20;;;1.55;;
59974;SDS011;62136;-35.664;-63.766;2023-04-03T04:54:36;4.35;;;1.60;;
59974;SDS011;62136;-35.664;-63.766;2023-04-03T04:57:03;1.92;;;1.50;;
59974;SDS011;62136;-35.664;-63.766;2023-04-03T04:59:30;3.58;;;1.40;;
59974;SDS011;62136;-35.664;-63.766;2023-04-03T05:01:57;3.22;;;1.60;;
59974;SDS011;62136;-35.664;-63.766;2023-04-03T05:04:24;2.72;;;1.38;;
59974;SDS011;62136;-35.664;-63.766;2023-04-03T05:06:51;3.95;;;1.70;;
59974;SDS011;62136;-35.664;-63.766;2023-04-03T05:09:18;3.63;;;1.70;;
59974;SDS011;62136;-35.664;-63.766;2023-04-03T05:11:45;3.55;;;1.65;;
59974;SDS011;62136;-35.664;-63.766;2023-04-03T05:14:12;1.60;;;1.50;;
59974;SDS011;62136;-35.664;-63.766;2023-04-03T05:16:39;3.03;;;1.40;;
59974;SDS011;62136;-35.664;-63.766;2023-04-03T05:19:06;3.72;;;1.70;;
59974;SDS011;62136;-35.664;-63.766;2023-04-03T05:21:33;3.17;;;1.60;;
59974;SDS011;62136;-35.664;-63.766;2023-04-03T05:24:01;2.20;;;1.65;;
59974;SDS011;62136;-35.664;-63.766;2023-04-03T05:26:29;2.28;;;1.63;;
59974;SDS011;62136;-35.664;-63.766;2023-04-03T05:28:56;2.65;;;1.42;;
59974;SDS011;62136;-35.664;-63.766;2023-04-03T05:31:24;2.58;;;1.42;;
59974;SDS011;62136;-35.664;-63.766;2023-04-03T05:33:51;1.63;;;1.15;;
59974;SDS011;62136;-35.664;-63.766;2023-04-03T05:36:22;2.55;;;1.60;;
59974;SDS011;62136;-35.664;-63.766;2023-04-03T05:38:49;3.13;;;1.73;;
59974;SDS011;62136;-35.664;-63.766;2023-04-03T05:41:16;2.50;;;1.40;;
59974;SDS011;62136;-35.664;-63.766;2023-04-03T05:43:43;3.15;;;1.50;;
59974;SDS011;62136;-35.664;-63.766;2023-04-03T05:46:11;1.80;;;1.40;;
59974;SDS011;62136;-35.664;-63.766;2023-04-03T05:48:40;2.10;;;1.20;;
59974;SDS011;62136;-35.664;-63.766;2023-04-03T05:51:09;2.20;;;1.42;;
59974;SDS011;62136;-35.664;-63.766;2023-04-03T05:53:41;3.45;;;1.70;;
59974;SDS011;62136;-35.664;-63.766;2023-04-03T05:56:10;3.67;;;1.52;;
59974;SDS011;62136;-35.664;-63.766;2023-04-03T05:58:37;3.70;;;1.77;;
59974;SDS011;62136;-35.664;-63.766;2023-04-03T06:01:05;2.63;;;1.42;;
59974;SDS011;62136;-35.664;-63.766;2023-04-03T06:03:32;2.28;;;1.30;;
59974;SDS011;62136;-35.664;-63.766;2023-04-03T06:05:59;2.13;;;1.30;;
59974;SDS011;62136;-35.664;-63.766;2023-04-03T06:08:28;2.55;;;1.52;;
59974;SDS011;62136;-35.664;-63.766;2023-04-03T06:10:56;1.92;;;1.58;;
59974;SDS011;62136;-35.664;-63.766;2023-04-03T06:13:23;2.05;;;1.30;;
59974;SDS011;62136;-35.664;-63.766;2023-04-03T06:15:50;1.98;;;1.20;;
59974;SDS011;62136;-35.664;-63.766;2023-04-03T06:18:17;2.67;;;1.50;;
59974;SDS011;62136;-35.664;-63.766;2023-04-03T06:20:44;2.80;;;1.60;;
59974;SDS011;62136;-35.664;-63.766;2023-04-03T06:23:11;5.07;;;1.90;;
59974;SDS011;62136;-35.664;-63.766;2023-04-03T06:25:39;4.00;;;1.60;;
59974;SDS011;62136;-35.664;-63.766;2023-04-03T06:28:06;2.58;;;1.27;;
59974;SDS011;62136;-35.664;-63.766;2023-04-03T06:30:35;2.50;;;1.50;;
59974;SDS011;62136;-35.664;-63.766;2023-04-03T06:33:03;2.45;;;1.50;;
59974;SDS011;62136;-35.664;-63.766;2023-04-03T06:35:30;1.75;;;1.20;;
59974;SDS011;62136;-35.664;-63.766;2023-04-03T06:37:57;3.28;;;1.60;;
59974;SDS011;62136;-35.664;-63.766;2023-04-03T06:40:24;2.25;;;1.20;;
59974;SDS011;62136;-35.664;-63.766;2023-04-03T06:42:52;2.22;;;1.40;;
59974;SDS011;62136;-35.664;-63.766;2023-04-03T06:45:19;2.03;;;1.50;;
59974;SDS011;62136;-35.664;-63.766;2023-04-03T06:47:47;2.40;;;1.60;;
59974;SDS011;62136;-35.664;-63.766;2023-04-03T06:50:14;2.50;;;1.30;;
59974;SDS011;62136;-35.664;-63.766;2023-04-03T06:52:41;3.28;;;1.40;;
59974;SDS011;62136;-35.664;-63.766;2023-04-03T06:55:08;2.08;;;1.50;;
59974;SDS011;62136;-35.664;-63.766;2023-04-03T06:57:36;1.88;;;1.45;;
59974;SDS011;62136;-35.664;-63.766;2023-04-03T07:00:04;2.40;;;1.40;;
59974;SDS011;62136;-35.664;-63.766;2023-04-03T07:02:32;1.85;;;1.15;;
59974;SDS011;62136;-35.664;-63.766;2023-04-03T07:05:00;3.03;;;1.60;;
59974;SDS011;62136;-35.664;-63.766;2023-04-03T07:07:27;2.47;;;1.27;;
59974;SDS011;62136;-35.664;-63.766;2023-04-03T07:09:54;1.73;;;1.33;;
59974;SDS011;62136;-35.664;-63.766;2023-04-03T07:12:21;2.05;;;1.20;;
59974;SDS011;62136;-35.664;-63.766;2023-04-03T07:14:48;2.15;;;1.20;;
59974;SDS011;62136;-35.664;-63.766;2023-04-03T07:17:15;1.95;;;1.25;;
59974;SDS011;62136;-35.664;-63.766;2023-04-03T07:19:42;2.85;;;1.40;;
59974;SDS011;62136;-35.664;-63.766;2023-04-03T07:22:09;1.60;;;1.20;;
59974;SDS011;62136;-35.664;-63.766;2023-04-03T07:24:37;2.35;;;1.40;;
59974;SDS011;62136;-35.664;-63.766;2023-04-03T07:27:04;3.28;;;1.23;;
59974;SDS011;62136;-35.664;-63.766;2023-04-03T07:29:34;3.33;;;1.48;;
59974;SDS011;62136;-35.664;-63.766;2023-04-03T07:32:01;3.80;;;1.63;;
59974;SDS011;62136;-35.664;-63.766;2023-04-03T07:34:29;1.45;;;1.00;;
59974;SDS011;62136;-35.664;-63.766;2023-04-03T07:36:56;2.15;;;1.50;;
59974;SDS011;62136;-35.664;-63.766;2023-04-03T07:39:23;1.80;;;1.30;;
59974;SDS011;62136;-35.664;-63.766;2023-04-03T07:41:50;3.92;;;1.75;;
59974;SDS011;62136;-35.664;-63.766;2023-04-03T07:44:17;3.08;;;1.40;;
59974;SDS011;62136;-35.664;-63.766;2023-04-03T07:46:44;3.15;;;1.60;;
59974;SDS011;62136;-35.664;-63.766;2023-04-03T07:49:12;1.33;;;1.20;;
59974;SDS011;62136;-35.664;-63.766;2023-04-03T07:51:39;3.08;;;1.50;;
59974;SDS011;62136;-35.664;-63.766;2023-04-03T07:54:07;1.95;;;1.33;;
59974;SDS011;62136;-35.664;-63.766;2023-04-03T07:56:34;2.30;;;1.30;;
59974;SDS011;62136;-35.664;-63.766;2023-04-03T07:59:01;3.28;;;1.38;;
59974;SDS011;62136;-35.664;-63.766;2023-04-03T08:01:28;2.53;;;1.40;;
59974;SDS011;62136;-35.664;-63.766;2023-04-03T08:03:57;1.77;;;1.20;;
59974;SDS011;62136;-35.664;-63.766;2023-04-03T08:06:25;1.85;;;1.23;;
59974;SDS011;62136;-35.664;-63.766;2023-04-03T08:08:52;2.15;;;1.50;;
59974;SDS011;62136;-35.664;-63.766;2023-04-03T08:11:19;1.45;;;1.17;;
59974;SDS011;62136;-35.664;-63.766;2023-04-03T08:13:46;1.90;;;1.48;;
59974;SDS011;62136;-35.664;-63.766;2023-04-03T08:16:17;1.60;;;1.17;;
59974;SDS011;62136;-35.664;-63.766;2023-04-03T08:18:46;2.42;;;1.30;;
59974;SDS011;62136;-35.664;-63.766;2023-04-03T08:21:13;2.97;;;1.42;;
59974;SDS011;62136;-35.664;-63.766;2023-04-03T08:23:41;1.15;;;1.05;;
59974;SDS011;62136;-35.664;-63.766;2023-04-03T08:26:12;1.92;;;1.30;;
59974;SDS011;62136;-35.664;-63.766;2023-04-03T08:28:41;1.85;;;1.30;;
59974;SDS011;62136;-35.664;-63.766;2023-04-03T08:31:10;1.58;;;1.20;;
59974;SDS011;62136;-35.664;-63.766;2023-04-03T08:33:39;1.73;;;1.10;;
59974;SDS011;62136;-35.664;-63.766;2023-04-03T08:36:07;2.13;;;1.20;;
59974;SDS011;62136;-35.664;-63.766;2023-04-03T08:38:48;2.28;;;1.10;;
59974;SDS011;62136;-35.664;-63.766;2023-04-03T08:44:10;2.45;;;1.10;;
59974;SDS011;62136;-35.664;-63.766;2023-04-03T08:46:47;3.20;;;1.65;;
59974;SDS011;62136;-35.664;-63.766;2023-04-03T08:49:47;2.15;;;1.20;;
59974;SDS011;62136;-35.664;-63.766;2023-04-03T08:52:49;1.77;;;1.27;;
59974;SDS011;62136;-35.664;-63.766;2023-04-03T08:58:04;2.17;;;1.42;;
59974;SDS011;62136;-35.664;-63.766;2023-04-03T09:00:57;3.60;;;1.40;;
59974;SDS011;62136;-35.664;-63.766;2023-04-03T09:03:46;1.75;;;1.10;;
59974;SDS011;62136;-35.664;-63.766;2023-04-03T09:06:14;3.80;;;1.48;;
59974;SDS011;62136;-35.664;-63.766;2023-04-03T09:09:21;1.95;;;1.33;;
59974;SDS011;62136;-35.664;-63.766;2023-04-03T09:14:26;2.97;;;1.27;;
59974;SDS011;62136;-35.664;-63.766;2023-04-03T09:17:22;2.55;;;1.45;;
59974;SDS011;62136;-35.664;-63.766;2023-04-03T09:22:39;1.98;;;1.20;;
59974;SDS011;62136;-35.664;-63.766;2023-04-03T09:25:13;2.00;;;1.30;;
59974;SDS011;62136;-35.664;-63.766;2023-04-03T09:27:46;3.05;;;1.38;;
59974;SDS011;62136;-35.664;-63.766;2023-04-03T09:30:17;1.92;;;1.20;;
59974;SDS011;62136;-35.664;-63.766;2023-04-03T09:32:50;1.92;;;1.10;;
59974;SDS011;62136;-35.664;-63.766;2023-04-03T09:37:49;1.73;;;1.17;;
59974;SDS011;62136;-35.664;-63.766;2023-04-03T09:42:52;1.55;;;1.30;;
59974;SDS011;62136;-35.664;-63.766;2023-04-03T09:50:34;1.77;;;1.13;;
59974;SDS011;62136;-35.664;-63.766;2023-04-03T09:53:06;1.88;;;1.27;;
59974;SDS011;62136;-35.664;-63.766;2023-04-03T09:55:51;1.42;;;1.10;;
59974;SDS011;62136;-35.664;-63.766;2023-04-03T09:58:26;2.60;;;1.13;;
59974;SDS011;62136;-35.664;-63.766;2023-04-03T10:01:03;3.08;;;1.30;;
59974;SDS011;62136;-35.664;-63.766;2023-04-03T10:03:31;2.10;;;1.27;;
59974;SDS011;62136;-35.664;-63.766;2023-04-03T10:08:58;1.70;;;1.40;;
59974;SDS011;62136;-35.664;-63.766;2023-04-03T10:11:26;2.00;;;1.60;;
59974;SDS011;62136;-35.664;-63.766;2023-04-03T10:14:01;3.47;;;1.70;;
59974;SDS011;62136;-35.664;-63.766;2023-04-03T10:24:28;4.10;;;2.47;;
59974;SDS011;62136;-35.664;-63.766;2023-04-03T10:27:17;4.05;;;2.40;;
59974;SDS011;62136;-35.664;-63.766;2023-04-03T10:32:58;4.25;;;2.70;;
59974;SDS011;62136;-35.664;-63.766;2023-04-03T10:35:50;5.45;;;2.75;;
59974;SDS011;62136;-35.664;-63.766;2023-04-03T10:38:42;5.97;;;2.53;;
59974;SDS011;62136;-35.664;-63.766;2023-04-03T10:41:34;6.47;;;3.10;;
59974;SDS011;62136;-35.664;-63.766;2023-04-03T10:44:34;5.97;;;2.75;;
59974;SDS011;62136;-35.664;-63.766;2023-04-03T10:52:52;5.82;;;2.83;;
59974;SDS011;62136;-35.664;-63.766;2023-04-03T10:55:53;5.47;;;2.47;;
59974;SDS011;62136;-35.664;-63.766;2023-04-03T10:58:45;4.90;;;2.25;;
59974;SDS011;62136;-35.664;-63.766;2023-04-03T11:01:24;6.05;;;2.63;;
59974;SDS011;62136;-35.664;-63.766;2023-04-03T11:03:59;4.60;;;2.30;;
59974;SDS011;62136;-35.664;-63.766;2023-04-03T11:06:36;5.40;;;2.28;;
59974;SDS011;62136;-35.664;-63.766;2023-04-03T11:09:34;4.32;;;2.22;;
59974;SDS011;62136;-35.664;-63.766;2023-04-03T11:12:42;4.20;;;2.40;;
59974;SDS011;62136;-35.664;-63.766;2023-04-03T11:15:16;6.45;;;2.20;;
59974;SDS011;62136;-35.664;-63.766;2023-04-03T11:17:51;5.63;;;2.38;;
59974;SDS011;62136;-35.664;-63.766;2023-04-03T11:20:29;5.40;;;2.60;;
59974;SDS011;62136;-35.664;-63.766;2023-04-03T11:23:47;4.38;;;2.30;;
59974;SDS011;62136;-35.664;-63.766;2023-04-03T11:25:56;6.95;;;2.38;;
59974;SDS011;62136;-35.664;-63.766;2023-04-03T11:28:37;4.85;;;2.40;;
59974;SDS011;62136;-35.664;-63.766;2023-04-03T11:31:29;4.93;;;2.00;;
59974;SDS011;62136;-35.664;-63.766;2023-04-03T11:34:13;3.22;;;1.90;;
59974;SDS011;62136;-35.664;-63.766;2023-04-03T11:36:58;9.20;;;2.70;;
59974;SDS011;62136;-35.664;-63.766;2023-04-03T11:39:33;6.38;;;2.67;;
59974;SDS011;62136;-35.664;-63.766;2023-04-03T11:44:40;6.55;;;2.63;;
59974;SDS011;62136;-35.664;-63.766;2023-04-03T11:47:08;6.47;;;2.85;;
59974;SDS011;62136;-35.664;-63.766;2023-04-03T12:00:51;4.43;;;1.85;;
59974;SDS011;62136;-35.664;-63.766;2023-04-03T12:08:30;5.63;;;1.95;;
59974;SDS011;62136;-35.664;-63.766;2023-04-03T12:16:21;5.32;;;2.17;;
59974;SDS011;62136;-35.664;-63.766;2023-04-03T12:27:01;7.10;;;2.90;;
59974;SDS011;62136;-35.664;-63.766;2023-04-03T12:35:03;7.13;;;2.50;;
59974;SDS011;62136;-35.664;-63.766;2023-04-03T12:40:51;5.32;;;2.13;;
59974;SDS011;62136;-35.664;-63.766;2023-04-03T12:46:23;6.75;;;2.45;;
59974;SDS011;62136;-35.664;-63.766;2023-04-03T12:49:00;8.85;;;2.88;;
59974;SDS011;62136;-35.664;-63.766;2023-04-03T12:59:44;5.55;;;2.42;;
59974;SDS011;62136;-35.664;-63.766;2023-04-03T13:02:30;7.22;;;2.33;;
59974;SDS011;62136;-35.664;-63.766;2023-04-03T13:05:13;6.25;;;2.53;;
59974;SDS011;62136;-35.664;-63.766;2023-04-03T13:07:43;6.88;;;2.60;;
59974;SDS011;62136;-35.664;-63.766;2023-04-03T13:10:19;9.65;;;3.20;;
59974;SDS011;62136;-35.664;-63.766;2023-04-03T13:12:51;6.78;;;2.50;;
59974;SDS011;62136;-35.664;-63.766;2023-04-03T13:15:47;6.60;;;2.42;;
59974;SDS011;62136;-35.664;-63.766;2023-04-03T13:20:57;6.13;;;2.42;;
59974;SDS011;62136;-35.664;-63.766;2023-04-03T13:23:35;9.95;;;2.80;;
59974;SDS011;62136;-35.664;-63.766;2023-04-03T13:26:05;7.45;;;2.38;;
59974;SDS011;62136;-35.664;-63.766;2023-04-03T13:28:34;8.05;;;2.15;;
59974;SDS011;62136;-35.664;-63.766;2023-04-03T13:31:04;8.82;;;2.63;;
59974;SDS011;62136;-35.664;-63.766;2023-04-03T13:33:36;6.15;;;2.67;;
59974;SDS011;62136;-35.664;-63.766;2023-04-03T13:39:28;5.85;;;1.92;;
59974;SDS011;62136;-35.664;-63.766;2023-04-03T13:42:23;6.45;;;2.30;;
59974;SDS011;62136;-35.664;-63.766;2023-04-03T13:45:09;5.72;;;1.92;;
59974;SDS011;62136;-35.664;-63.766;2023-04-03T13:47:43;4.88;;;1.50;;
59974;SDS011;62136;-35.664;-63.766;2023-04-03T13:55:36;6.35;;;1.67;;
59974;SDS011;62136;-35.664;-63.766;2023-04-03T13:58:22;6.05;;;1.75;;
59974;SDS011;62136;-35.664;-63.766;2023-04-03T14:01:17;5.82;;;2.22;;
59974;SDS011;62136;-35.664;-63.766;2023-04-03T14:03:56;7.68;;;2.13;;
59974;SDS011;62136;-35.664;-63.766;2023-04-03T14:06:26;6.40;;;2.15;;
59974;SDS011;62136;-35.664;-63.766;2023-04-03T14:08:54;7.80;;;2.33;;
59974;SDS011;62136;-35.664;-63.766;2023-04-03T14:11:22;7.10;;;2.42;;
59974;SDS011;62136;-35.664;-63.766;2023-04-03T14:13:54;6.03;;;2.00;;
59974;SDS011;62136;-35.664;-63.766;2023-04-03T14:16:30;8.75;;;2.00;;
59974;SDS011;62136;-35.664;-63.766;2023-04-03T14:19:02;6.40;;;1.70;;
59974;SDS011;62136;-35.664;-63.766;2023-04-03T14:21:29;7.50;;;2.22;;
59974;SDS011;62136;-35.664;-63.766;2023-04-03T14:23:57;6.60;;;1.80;;
59974;SDS011;62136;-35.664;-63.766;2023-04-03T14:26:24;6.07;;;1.90;;
59974;SDS011;62136;-35.664;-63.766;2023-04-03T14:28:55;5.55;;;1.50;;
59974;SDS011;62136;-35.664;-63.766;2023-04-03T14:31:42;7.28;;;2.15;;
59974;SDS011;62136;-35.664;-63.766;2023-04-03T14:34:12;6.43;;;1.85;;
59974;SDS011;62136;-35.664;-63.766;2023-04-03T14:36:40;6.95;;;1.90;;
59974;SDS011;62136;-35.664;-63.766;2023-04-03T14:39:10;6.13;;;2.22;;
59974;SDS011;62136;-35.664;-63.766;2023-04-03T14:41:43;4.15;;;1.75;;
59974;SDS011;62136;-35.664;-63.766;2023-04-03T14:44:11;5.88;;;1.67;;
59974;SDS011;62136;-35.664;-63.766;2023-04-03T14:46:39;5.72;;;1.65;;
59974;SDS011;62136;-35.664;-63.766;2023-04-03T14:49:16;7.43;;;1.90;;
59974;SDS011;62136;-35.664;-63.766;2023-04-03T14:51:46;8.35;;;1.63;;
59974;SDS011;62136;-35.664;-63.766;2023-04-03T14:54:14;12.45;;;1.90;;
59974;SDS011;62136;-35.664;-63.766;2023-04-03T14:56:44;7.95;;;2.08;;
59974;SDS011;62136;-35.664;-63.766;2023-04-03T14:59:11;7.40;;;1.95;;
59974;SDS011;62136;-35.664;-63.766;2023-04-03T15:01:40;6.68;;;1.73;;
59974;SDS011;62136;-35.664;-63.766;2023-04-03T15:04:13;5.97;;;1.98;;
59974;SDS011;62136;-35.664;-63.766;2023-04-03T15:11:37;7.57;;;2.13;;
59974;SDS011;62136;-35.664;-63.766;2023-04-03T15:14:05;8.63;;;1.67;;
59974;SDS011;62136;-35.664;-63.766;2023-04-03T15:16:34;6.72;;;1.70;;
59974;SDS011;62136;-35.664;-63.766;2023-04-03T15:19:02;9.35;;;2.05;;
59974;SDS011;62136;-35.664;-63.766;2023-04-03T15:21:29;5.82;;;1.90;;
59974;SDS011;62136;-35.664;-63.766;2023-04-03T15:23:57;8.68;;;2.00;;
59974;SDS011;62136;-35.664;-63.766;2023-04-03T15:26:27;5.55;;;1.50;;
59974;SDS011;62136;-35.664;-63.766;2023-04-03T15:28:57;5.88;;;1.70;;
59974;SDS011;62136;-35.664;-63.766;2023-04-03T15:31:24;6.35;;;1.92;;
59974;SDS011;62136;-35.664;-63.766;2023-04-03T15:33:52;5.85;;;1.42;;
59974;SDS011;62136;-35.664;-63.766;2023-04-03T15:36:19;5.68;;;1.75;;
59974;SDS011;62136;-35.664;-63.766;2023-04-03T15:38:46;4.95;;;1.80;;
59974;SDS011;62136;-35.664;-63.766;2023-04-03T15:41:13;9.32;;;1.98;;
59974;SDS011;62136;-35.664;-63.766;2023-04-03T15:43:40;6.55;;;1.65;;
59974;SDS011;62136;-35.664;-63.766;2023-04-03T15:46:07;8.38;;;2.03;;
59974;SDS011;62136;-35.664;-63.766;2023-04-03T15:48:35;5.65;;;1.92;;
59974;SDS011;62136;-35.664;-63.766;2023-04-03T15:51:02;6.60;;;1.60;;
59974;SDS011;62136;-35.664;-63.766;2023-04-03T15:53:30;6.57;;;2.13;;
59974;SDS011;62136;-35.664;-63.766;2023-04-03T15:55:58;5.13;;;1.70;;
59974;SDS011;62136;-35.664;-63.766;2023-04-03T15:58:25;4.70;;;1.60;;
59974;SDS011;62136;-35.664;-63.766;2023-04-03T16:00:52;5.72;;;1.80;;
59974;SDS011;62136;-35.664;-63.766;2023-04-03T16:03:20;7.85;;;2.25;;
59974;SDS011;62136;-35.664;-63.766;2023-04-03T16:05:49;4.57;;;1.60;;
59974;SDS011;62136;-35.664;-63.766;2023-04-03T16:08:17;5.95;;;2.00;;
59974;SDS011;62136;-35.664;-63.766;2023-04-03T16:10:45;5.05;;;2.15;;
59974;SDS011;62136;-35.664;-63.766;2023-04-03T16:13:13;4.60;;;2.30;;
59974;SDS011;62136;-35.664;-63.766;2023-04-03T16:15:40;5.53;;;1.90;;
59974;SDS011;62136;-35.664;-63.766;2023-04-03T16:18:08;6.10;;;1.83;;
59974;SDS011;62136;-35.664;-63.766;2023-04-03T16:20:36;4.60;;;1.73;;
59974;SDS011;62136;-35.664;-63.766;2023-04-03T16:23:03;2.00;;;1.58;;
59974;SDS011;62136;-35.664;-63.766;2023-04-03T16:25:31;4.85;;;2.00;;
59974;SDS011;62136;-35.664;-63.766;2023-04-03T16:27:58;6.22;;;2.15;;